Pagrindinis puslapis
METAR-TAF:

METAR-TAF

Oro uostai :

Kuusamo, Suomija

platuma: 65-58N, ilguma: 029-11E, Aukštis: 262 m

Dabartinis oras

Ataskaita buvo paskelbta 28 minutes, ne 02:20 UTC
Vėjas 9 kt iš Šiaurės
Temperatūra -1°C
Drėgmė 93%
Slėgis 979 hPa
Matomumas 10 km arba daugiau
Su prošvaistėmis ne aukštis 1000 ft

METAR: EFKS 200220Z AUTO 35009KT 9999 BKN010 M01/M02 Q0979 REFZRA

Laikas: 04:48 (02:48 UTC)

Prognozė

Ataskaita buvo paskelbta 20 minutes, ne 02:28 UTC
Prognozė galioja nuo 20 metu 03 UTC su 20 metu 12 UTC
Vėjas 6 kt iš Šiaurės
Matomumas 10 km arba daugiau
Su prošvaistėmis ne aukštis 600 ft
sniegas
Tapsmas
nuo 20 metu 03 UTC su 20 metu 05 UTC
Matomumas 10 km arba daugiau
nėra debesų žemiau 1500 m ir nėra kamuolinių lietaus debesų

TAF: EFKS 200228Z 2003/2012 35006KT 9999 -SN BKN006 BECMG 2003/2005 CAVOK

Orai ataskaitas ir orų prognozės (METAR, TAF).

turimą stotys yra geltonos ir raudonos taškus žemėlapyje.

Perkelti pele per norėdami pamatyti stoties vardą.

Tada spustelėkite, norėdami matyti oro stebėjimo ir prognozės.

Norėdami pakeisti žemėlapį: spustelėkite ant žalios mygtukų su juodo kryžiaus žemyn,; žalią mygtuką su brūkšneliu, jei norite nutolinti; arba žalių rodyklių gretimoms žemėlapius.


METAR-TAF: